createdAt,value
2022-12-13T00:00:00.035Z,99303.75
2022-12-13T00:00:42.427Z,99326.38
2022-12-13T00:01:25.665Z,99317.22
2022-12-13T00:02:07.431Z,99312.88
2022-12-13T00:02:49.069Z,99317.97
2022-12-13T00:03:30.905Z,99257.38
2022-12-13T00:04:13.772Z,99242.25
2022-12-13T00:04:55.427Z,99283.78
2022-12-13T00:05:43.967Z,99278.00
2022-12-13T00:06:26.323Z,99301.63
2022-12-13T00:07:08.189Z,99311.97
2022-12-13T00:07:49.898Z,99308.47
2022-12-13T00:08:31.602Z,99276.56
2022-12-13T00:09:15.058Z,99301.22
2022-12-13T00:09:56.725Z,99303.72
2022-12-13T00:10:38.297Z,99278.47
2022-12-13T00:11:19.997Z,99306.84
2022-12-13T00:12:01.573Z,99303.34
2022-12-13T00:12:43.227Z,99298.81
2022-12-13T00:13:24.803Z,99298.69
2022-12-13T00:14:06.404Z,99293.44
2022-12-13T00:14:47.994Z,99294.69
2022-12-13T00:15:29.627Z,99291.78
2022-12-13T00:16:14.757Z,99299.06
2022-12-13T00:16:56.348Z,99298.03
2022-12-13T00:17:38.082Z,99297.81
2022-12-13T00:18:19.718Z,99296.81
2022-12-13T00:19:01.566Z,99266.59
2022-12-13T00:19:43.204Z,99285.63
2022-12-13T00:20:24.816Z,99300.44
2022-12-13T00:21:08.939Z,99291.75
2022-12-13T00:21:50.572Z,99277.78
2022-12-13T00:22:32.160Z,99294.78
2022-12-13T00:23:13.806Z,99267.34
2022-12-13T00:23:56.059Z,99293.03
2022-12-13T00:24:42.866Z,99292.63
2022-12-13T00:25:27.443Z,99296.13
2022-12-13T00:26:18.526Z,99290.56
2022-12-13T00:27:00.726Z,99293.91
2022-12-13T00:27:42.341Z,99274.94
2022-12-13T00:28:24.929Z,99287.75
2022-12-13T00:29:07.936Z,99292.13
2022-12-13T00:29:49.615Z,99273.88
2022-12-13T00:30:34.011Z,99296.88
2022-12-13T00:32:18.327Z,99298.09
2022-12-13T00:33:00.128Z,99292.13
2022-12-13T00:33:41.769Z,99293.16
2022-12-13T00:34:24.109Z,99282.50
2022-12-13T00:35:06.489Z,99193.72
2022-12-13T00:35:48.060Z,99280.66
2022-12-13T00:36:29.689Z,99275.16
2022-12-13T00:37:11.385Z,99266.38
2022-12-13T00:37:53.031Z,99284.97
2022-12-13T00:38:35.552Z,99266.75
2022-12-13T00:39:18.967Z,99277.22
2022-12-13T00:40:00.649Z,99198.25
2022-12-13T00:40:42.241Z,99245.56
2022-12-13T00:41:23.862Z,99179.22
2022-12-13T00:42:06.089Z,99272.34
2022-12-13T00:42:47.713Z,99270.47
2022-12-13T00:43:29.406Z,99244.88
2022-12-13T00:44:14.131Z,99278.31
2022-12-13T00:44:55.812Z,99283.69
2022-12-13T00:45:39.541Z,99273.44
2022-12-13T00:46:22.617Z,99274.66
2022-12-13T00:47:04.230Z,99267.22
2022-12-13T00:47:46.385Z,99257.47
2022-12-13T00:48:28.413Z,99273.69
2022-12-13T00:49:11.580Z,99275.06
2022-12-13T00:49:53.133Z,99258.97
2022-12-13T00:50:35.575Z,99255.69
2022-12-13T00:51:17.812Z,99278.03
2022-12-13T00:52:00.118Z,99293.53
2022-12-13T00:52:42.048Z,99288.50
2022-12-13T00:53:23.640Z,99279.06
2022-12-13T00:54:05.838Z,99281.75
2022-12-13T00:54:47.427Z,99287.75
2022-12-13T00:55:28.990Z,99249.75
2022-12-13T00:56:13.114Z,99282.28
2022-12-13T00:56:54.773Z,99196.03
2022-12-13T00:57:36.417Z,99282.81
2022-12-13T00:58:18.022Z,99280.22
2022-12-13T00:59:00.096Z,99283.66
2022-12-13T00:59:41.760Z,99274.16
2022-12-13T01:00:23.462Z,99276.50
2022-12-13T01:01:07.613Z,99283.56
2022-12-13T01:01:49.371Z,99259.44
2022-12-13T01:02:31.013Z,99254.44
2022-12-13T01:03:25.307Z,99250.22
2022-12-13T01:04:07.853Z,99278.38
2022-12-13T01:04:50.299Z,99278.47
2022-12-13T01:06:11.138Z,99192.78
2022-12-13T01:06:36.895Z,99225.25
2022-12-13T01:07:18.519Z,99224.88
2022-12-13T01:08:00.168Z,99264.53
2022-12-13T01:08:41.801Z,99216.94
2022-12-13T01:09:31.088Z,99246.75
2022-12-13T01:10:12.805Z,99260.31
2022-12-13T01:10:55.086Z,99264.53
2022-12-13T01:11:36.802Z,99241.63
2022-12-13T01:12:18.422Z,99251.06
2022-12-13T01:13:00.278Z,99253.97
2022-12-13T01:13:42.375Z,99265.97
2022-12-13T01:14:24.253Z,99239.09
2022-12-13T01:15:06.926Z,99271.78
2022-12-13T01:15:48.551Z,99224.72
2022-12-13T01:16:30.234Z,99234.34
2022-12-13T01:17:12.107Z,99254.84
2022-12-13T01:17:53.735Z,99187.06
2022-12-13T01:18:36.213Z,99239.00
2022-12-13T01:19:17.845Z,99254.44
2022-12-13T01:19:59.465Z,99264.69
2022-12-13T01:20:41.124Z,99264.59
2022-12-13T01:21:22.724Z,99242.97
2022-12-13T01:22:06.360Z,99252.78
2022-12-13T01:22:47.978Z,99267.88
2022-12-13T01:23:29.774Z,99264.38
2022-12-13T01:24:11.486Z,99268.00
2022-12-13T01:24:53.067Z,99247.31
2022-12-13T01:25:37.723Z,99281.44
2022-12-13T01:26:21.673Z,99210.16
2022-12-13T01:27:03.422Z,99246.47
2022-12-13T01:27:45.018Z,99284.78
2022-12-13T01:28:26.618Z,99267.09
2022-12-13T01:29:08.932Z,99278.88
2022-12-13T01:29:50.533Z,99259.63
2022-12-13T01:30:32.258Z,99255.38
2022-12-13T01:31:16.820Z,99269.06
2022-12-13T01:31:58.520Z,99286.22
2022-12-13T01:32:40.138Z,99270.50
2022-12-13T01:33:22.322Z,99270.28
2022-12-13T01:34:10.442Z,99270.19
2022-12-13T01:34:52.223Z,99259.66
2022-12-13T01:35:35.163Z,99264.41
2022-12-13T01:36:19.345Z,99248.88
2022-12-13T01:37:08.794Z,99268.75
2022-12-13T01:37:50.447Z,99276.31
2022-12-13T01:38:32.509Z,99262.31
2022-12-13T01:39:19.998Z,99247.84
2022-12-13T01:40:16.200Z,99262.31
2022-12-13T01:40:59.172Z,99276.31
2022-12-13T01:41:41.711Z,99264.31
2022-12-13T01:42:23.304Z,99245.06
2022-12-13T01:43:14.691Z,99259.56
2022-12-13T01:44:03.413Z,99228.59
2022-12-13T01:45:07.198Z,99264.19
2022-12-13T01:45:48.815Z,99265.03
2022-12-13T01:46:33.561Z,99256.53
2022-12-13T01:47:18.255Z,99241.84
2022-12-13T01:48:06.554Z,99232.84
2022-12-13T01:49:19.966Z,99251.47
2022-12-13T01:50:08.671Z,99218.78
2022-12-13T01:50:56.831Z,99202.84
2022-12-13T01:51:47.638Z,99204.69
2022-12-13T01:52:33.559Z,99221.03
2022-12-13T01:53:18.724Z,99199.41
2022-12-13T01:54:03.208Z,99228.69
2022-12-13T01:54:48.493Z,99255.09
2022-12-13T01:55:34.330Z,99233.78
2022-12-13T01:56:29.020Z,99251.56
2022-12-13T01:57:12.982Z,99227.47
2022-12-13T01:57:58.022Z,99228.41
2022-12-13T01:58:41.585Z,99234.41
2022-12-13T01:59:23.890Z,99220.94
2022-12-13T02:00:08.562Z,99212.34
2022-12-13T02:00:51.137Z,99236.78
2022-12-13T02:01:33.098Z,99218.91
2022-12-13T02:02:15.841Z,99205.03
2022-12-13T02:02:59.727Z,99257.69
2022-12-13T02:03:41.731Z,99247.34
2022-12-13T02:04:31.471Z,99191.75
2022-12-13T02:05:24.384Z,99226.44
2022-12-13T02:06:18.039Z,99225.50
2022-12-13T02:07:00.485Z,99248.88
2022-12-13T02:07:44.620Z,99233.34
2022-12-13T02:08:26.665Z,99220.41
2022-12-13T02:09:10.438Z,99237.50
2022-12-13T02:09:57.021Z,99251.78
2022-12-13T02:10:39.803Z,99230.06
2022-12-13T02:11:21.586Z,99189.59
2022-12-13T02:12:04.135Z,99193.63
2022-12-13T02:12:45.836Z,99215.03
2022-12-13T02:13:27.415Z,99238.44
2022-12-13T02:14:09.861Z,99242.66
2022-12-13T02:14:52.755Z,99230.91
2022-12-13T02:15:50.307Z,99197.66
2022-12-13T02:17:01.355Z,99237.09
2022-12-13T02:18:04.524Z,99231.72
2022-12-13T02:19:12.902Z,99241.22
2022-12-13T02:20:45.564Z,99240.63
2022-12-13T02:21:41.966Z,99233.78
2022-12-13T02:22:37.721Z,99203.88
2022-12-13T02:23:41.125Z,99231.94
2022-12-13T02:24:28.358Z,99230.28
2022-12-13T02:25:53.241Z,99151.66
2022-12-13T02:26:59.536Z,99226.66
2022-12-13T02:28:30.763Z,99229.13
2022-12-13T02:29:30.330Z,99225.72
2022-12-13T02:30:20.574Z,99159.19
2022-12-13T02:31:12.680Z,99241.44
2022-12-13T02:32:21.162Z,99218.47
2022-12-13T02:33:11.642Z,99232.53
2022-12-13T02:34:00.947Z,99207.72
2022-12-13T02:34:51.421Z,99233.78
2022-12-13T02:35:54.904Z,99235.44
2022-12-13T02:37:01.143Z,99213.19
2022-12-13T02:38:03.861Z,99234.81
2022-12-13T02:39:30.496Z,99225.31
2022-12-13T02:40:23.656Z,99193.97
2022-12-13T02:41:15.631Z,99202.31
2022-12-13T02:42:05.059Z,99224.56
2022-12-13T02:43:03.578Z,99220.88
2022-12-13T02:44:01.439Z,99197.03
2022-12-13T02:44:51.112Z,99223.53
2022-12-13T02:45:36.815Z,99157.41
2022-12-13T02:46:23.123Z,99216.19
2022-12-13T02:47:27.184Z,99228.09
2022-12-13T02:48:12.123Z,99209.88
2022-12-13T02:48:56.563Z,99228.19
2022-12-13T02:49:43.860Z,99223.34
2022-12-13T02:50:27.621Z,99215.38
2022-12-13T02:51:11.847Z,99222.28
2022-12-13T02:51:55.049Z,99150.59
2022-12-13T02:52:40.431Z,99172.28
2022-12-13T02:53:23.270Z,99212.31
2022-12-13T02:54:04.982Z,99194.19
2022-12-13T02:54:49.727Z,99219.69
2022-12-13T02:55:35.829Z,99198.34
2022-12-13T02:56:17.801Z,99214.50
2022-12-13T02:57:00.281Z,99210.44
2022-12-13T02:57:44.912Z,99236.94
2022-12-13T02:58:32.887Z,99210.34
2022-12-13T02:59:15.069Z,99208.59
2022-12-13T03:00:01.114Z,99172.16
2022-12-13T03:01:04.495Z,99228.38
2022-12-13T03:02:31.000Z,99225.88
2022-12-13T03:03:28.367Z,99228.47
2022-12-13T03:04:26.425Z,99229.28
2022-12-13T03:05:36.009Z,99234.56
2022-12-13T03:06:49.793Z,99225.44
2022-12-13T03:07:44.728Z,99223.34
2022-12-13T03:08:30.858Z,99205.13
2022-12-13T03:09:43.622Z,99226.03
2022-12-13T03:10:33.189Z,99200.53
2022-12-13T03:11:18.809Z,99236.56
2022-12-13T03:12:37.406Z,99229.63
2022-12-13T03:13:38.910Z,99196.44
2022-12-13T03:14:22.737Z,99221.97
2022-12-13T03:15:29.063Z,99214.84
2022-12-13T03:16:23.770Z,99186.88
2022-12-13T03:17:08.392Z,99226.44
2022-12-13T03:18:02.686Z,99234.06
2022-12-13T03:18:46.264Z,99154.84
2022-12-13T03:19:27.920Z,99187.31
2022-12-13T03:20:22.483Z,99222.94
2022-12-13T03:21:08.921Z,99215.97
2022-12-13T03:21:50.636Z,99227.16
2022-12-13T03:22:34.588Z,99219.41
2022-12-13T03:23:20.852Z,99210.03
2022-12-13T03:24:02.425Z,99192.81
2022-12-13T03:24:44.319Z,99202.28
2022-12-13T03:25:32.254Z,99184.34
2022-12-13T03:26:18.248Z,99182.78
2022-12-13T03:26:59.949Z,99131.47
2022-12-13T03:27:41.626Z,99157.19
2022-12-13T03:28:23.392Z,99208.66
2022-12-13T03:29:06.312Z,99189.69
2022-12-13T03:29:47.889Z,99170.75
2022-12-13T03:30:31.677Z,99206.81
2022-12-13T03:31:13.301Z,99182.25
2022-12-13T03:31:54.945Z,99228.38
2022-12-13T03:32:36.629Z,99192.00
2022-12-13T03:33:18.469Z,99210.41
2022-12-13T03:34:00.088Z,99217.22
2022-12-13T03:34:43.571Z,99134.34
2022-12-13T03:35:34.692Z,99203.56
2022-12-13T03:36:26.303Z,99163.09
2022-12-13T03:37:07.934Z,99189.69
2022-12-13T03:37:50.086Z,99215.19
2022-12-13T03:38:32.151Z,99205.44
2022-12-13T03:39:13.852Z,99229.94
2022-12-13T03:39:55.926Z,99197.25
2022-12-13T03:40:37.640Z,99163.09
2022-12-13T03:41:23.025Z,99138.16
2022-12-13T03:42:04.768Z,99195.69
2022-12-13T03:42:46.904Z,99134.75
2022-12-13T03:43:29.102Z,99208.56
2022-12-13T03:44:10.748Z,99197.44
2022-12-13T03:44:52.310Z,99157.81
2022-12-13T03:45:33.919Z,99208.31
2022-12-13T03:46:15.981Z,99205.31
2022-12-13T03:46:57.611Z,99210.41
2022-12-13T03:47:42.512Z,99191.25
2022-12-13T03:48:24.401Z,99184.44
2022-12-13T03:49:06.087Z,99202.66
2022-12-13T03:49:54.072Z,99208.22
2022-12-13T03:50:36.008Z,99164.28
2022-12-13T03:51:17.712Z,99204.72
2022-12-13T03:51:59.281Z,99168.94
2022-12-13T03:52:42.163Z,99220.34
2022-12-13T03:53:32.642Z,99197.09
2022-12-13T03:54:15.605Z,99181.56
2022-12-13T03:54:57.266Z,99189.66
2022-12-13T03:55:38.912Z,99188.78
2022-12-13T03:56:20.532Z,99147.41
2022-12-13T03:57:02.156Z,99197.28
2022-12-13T03:57:43.991Z,99195.81
2022-12-13T03:58:25.556Z,99195.44
2022-12-13T03:59:17.118Z,99220.22
2022-12-13T03:59:58.759Z,99197.72
2022-12-13T04:00:40.678Z,99204.13
2022-12-13T04:01:23.232Z,99204.53
2022-12-13T04:02:05.030Z,99212.19
2022-12-13T04:02:46.725Z,99187.16
2022-12-13T04:03:28.408Z,99157.16
2022-12-13T04:04:10.030Z,99202.59
2022-12-13T04:04:51.655Z,99196.78
2022-12-13T04:05:33.316Z,99184.56
2022-12-13T04:06:22.857Z,99202.41
2022-12-13T04:07:05.069Z,99212.50
2022-12-13T04:08:04.357Z,99194.84
2022-12-13T04:09:03.918Z,99186.66
2022-12-13T04:09:45.524Z,99210.16
2022-12-13T04:10:27.928Z,99211.59
2022-12-13T04:11:28.151Z,99197.94
2022-12-13T04:12:30.309Z,99216.25
2022-12-13T04:13:30.671Z,99167.50
2022-12-13T04:14:12.414Z,99190.28
2022-12-13T04:15:05.062Z,99194.41
2022-12-13T04:15:48.963Z,99198.53
2022-12-13T04:16:30.892Z,99166.66
2022-12-13T04:17:12.541Z,99200.38
2022-12-13T04:17:54.098Z,99192.44
2022-12-13T04:18:35.689Z,99193.38
2022-12-13T04:19:23.334Z,99195.13
2022-12-13T04:20:06.186Z,99193.47
2022-12-13T04:20:48.049Z,99191.22
2022-12-13T04:21:29.642Z,99212.47
2022-12-13T04:22:11.291Z,99200.38
2022-12-13T04:22:52.942Z,99172.16
2022-12-13T04:23:34.554Z,99213.13
2022-12-13T04:24:16.427Z,99199.38
2022-12-13T04:24:58.065Z,99208.38
2022-12-13T04:25:41.089Z,99206.09
2022-12-13T04:26:22.707Z,99197.38
2022-12-13T04:27:04.365Z,99198.84
2022-12-13T04:27:46.495Z,99199.88
2022-12-13T04:28:28.049Z,99168.31
2022-12-13T04:29:09.630Z,99194.34
2022-12-13T04:29:51.182Z,99172.03
2022-12-13T04:30:33.824Z,99195.75
2022-12-13T04:31:15.544Z,99190.59
2022-12-13T04:31:57.258Z,99171.84
2022-12-13T04:32:39.012Z,99202.97
2022-12-13T04:33:21.867Z,99082.59
2022-12-13T04:34:03.578Z,99101.81
2022-12-13T04:34:45.140Z,99189.19
2022-12-13T04:35:27.186Z,99178.47
2022-12-13T04:36:08.803Z,99186.34
2022-12-13T04:36:50.378Z,99181.47
2022-12-13T04:37:32.281Z,99186.16
2022-12-13T04:38:13.906Z,99162.06
2022-12-13T04:38:55.501Z,99188.75
2022-12-13T04:39:37.068Z,99192.34
2022-12-13T04:40:21.644Z,99171.47
2022-12-13T04:41:16.161Z,99189.03
2022-12-13T04:41:57.730Z,99130.78
2022-12-13T04:42:39.653Z,99159.44
2022-12-13T04:43:21.245Z,99171.25
2022-12-13T04:44:03.882Z,99198.44
2022-12-13T04:44:46.285Z,99144.13
2022-12-13T04:45:28.262Z,99140.81
2022-12-13T04:46:10.026Z,99133.72
2022-12-13T04:46:51.677Z,99141.38
2022-12-13T04:47:33.312Z,99146.75
2022-12-13T04:48:30.461Z,99119.25
2022-12-13T04:49:13.137Z,99076.03
2022-12-13T04:49:55.154Z,99169.41
2022-12-13T04:50:36.943Z,99189.59
2022-12-13T04:51:18.513Z,99137.25
2022-12-13T04:52:01.666Z,99185.75
2022-12-13T04:52:44.224Z,99186.38
2022-12-13T04:53:25.818Z,99130.00
2022-12-13T04:54:23.683Z,99167.88
2022-12-13T04:55:06.810Z,99180.28
2022-12-13T04:55:48.442Z,99151.53
2022-12-13T04:56:30.048Z,99184.81
2022-12-13T04:57:12.151Z,99142.41
2022-12-13T04:57:53.795Z,99182.25
2022-12-13T04:58:35.409Z,99133.53
2022-12-13T04:59:17.442Z,99115.28
2022-12-13T04:59:59.240Z,99086.88
2022-12-13T05:00:41.072Z,99114.66
2022-12-13T05:01:26.252Z,99178.69
2022-12-13T05:02:10.130Z,99181.81
2022-12-13T05:02:51.829Z,99184.31
2022-12-13T05:03:33.624Z,99133.53
2022-12-13T05:04:15.200Z,99121.00
2022-12-13T05:04:56.846Z,99155.66
2022-12-13T05:05:40.521Z,99179.56
2022-12-13T05:06:26.604Z,99179.56
2022-12-13T05:07:09.465Z,99181.00
2022-12-13T05:07:51.142Z,99189.25
2022-12-13T05:08:32.904Z,99145.94
2022-12-13T05:09:14.455Z,99185.84
2022-12-13T05:09:56.013Z,99166.72
2022-12-13T05:10:38.299Z,99145.50
2022-12-13T05:11:20.045Z,99178.00
2022-12-13T05:12:04.786Z,99122.97
2022-12-13T05:13:04.843Z,99181.31
2022-12-13T05:13:46.495Z,99019.00
2022-12-13T05:14:28.200Z,99182.25
2022-12-13T05:15:09.888Z,99146.38
2022-12-13T05:15:58.865Z,99172.91
2022-12-13T05:16:40.538Z,99178.91
2022-12-13T05:17:22.268Z,99131.44
2022-12-13T05:18:10.041Z,99168.81
2022-12-13T05:18:52.459Z,99105.00
2022-12-13T05:19:34.021Z,99139.81
2022-12-13T05:20:15.714Z,99118.84
2022-12-13T05:21:01.190Z,99112.00
2022-12-13T05:21:42.796Z,99158.78
2022-12-13T05:22:24.399Z,99131.88
2022-12-13T05:23:06.016Z,99173.84
2022-12-13T05:23:47.569Z,99164.66
2022-12-13T05:24:30.782Z,99173.31
2022-12-13T05:25:12.469Z,99086.13
2022-12-13T05:25:54.185Z,99126.97
2022-12-13T05:26:36.227Z,99156.75
2022-12-13T05:27:24.484Z,99127.97
2022-12-13T05:28:08.833Z,99156.13
2022-12-13T05:29:09.442Z,99127.38
2022-12-13T05:29:54.828Z,99174.63
2022-12-13T05:30:45.662Z,99169.47
2022-12-13T05:31:27.314Z,99162.53
2022-12-13T05:32:08.941Z,99155.63
2022-12-13T05:32:50.586Z,99149.31
2022-12-13T05:33:32.191Z,99166.06
2022-12-13T05:34:14.051Z,99136.25
2022-12-13T05:34:55.655Z,99132.75
2022-12-13T05:35:37.598Z,99163.50
2022-12-13T05:36:19.487Z,99090.56
2022-12-13T05:37:01.350Z,99093.13
2022-12-13T05:37:42.975Z,99129.03
2022-12-13T05:38:24.577Z,99157.59
2022-12-13T05:39:06.220Z,99166.16
2022-12-13T05:40:09.822Z,99167.09
2022-12-13T05:40:51.405Z,99136.66
2022-12-13T05:41:35.717Z,99156.03
2022-12-13T05:42:17.286Z,99159.53
2022-12-13T05:43:00.828Z,99140.38
2022-12-13T05:43:43.914Z,99124.06
2022-12-13T05:44:25.653Z,99167.28
2022-12-13T05:45:08.179Z,99160.88
2022-12-13T05:45:50.755Z,99103.28
2022-12-13T05:46:35.607Z,99157.78
2022-12-13T05:47:21.563Z,99080.31
2022-12-13T05:48:03.446Z,99169.78
2022-12-13T05:48:45.310Z,99162.03
2022-12-13T05:49:26.913Z,99143.81
2022-12-13T05:50:08.983Z,99170.69
2022-12-13T05:50:50.586Z,99160.47
2022-12-13T05:51:32.274Z,99124.25
2022-12-13T05:52:18.399Z,99076.69
2022-12-13T05:53:00.042Z,99140.69
2022-12-13T05:53:42.324Z,99161.56
2022-12-13T05:54:23.927Z,99149.72
2022-12-13T05:55:05.959Z,99134.69
2022-12-13T05:55:47.543Z,99158.38
2022-12-13T05:56:29.142Z,99092.81
2022-12-13T05:57:10.798Z,99097.06
2022-12-13T05:57:52.380Z,99124.09
2022-12-13T05:58:35.785Z,99143.97
2022-12-13T05:59:17.835Z,99163.00
2022-12-13T05:59:59.439Z,99114.81
2022-12-13T06:00:41.027Z,99175.81
2022-12-13T06:01:22.660Z,99106.44
2022-12-13T06:02:04.487Z,99163.75
2022-12-13T06:02:46.297Z,99096.41
2022-12-13T06:03:28.075Z,99134.75
2022-12-13T06:04:09.788Z,99154.44
2022-12-13T06:04:51.431Z,99138.66
2022-12-13T06:05:33.048Z,99167.44
2022-12-13T06:06:17.436Z,99117.16
2022-12-13T06:06:59.079Z,99152.91
2022-12-13T06:07:40.697Z,99164.94
2022-12-13T06:08:23.872Z,99129.25
2022-12-13T06:09:07.684Z,99169.28
2022-12-13T06:09:49.281Z,99117.56
2022-12-13T06:10:34.989Z,99139.31
2022-12-13T06:11:31.357Z,99161.44
2022-12-13T06:12:31.821Z,99115.13
2022-12-13T06:13:21.486Z,99151.44
2022-12-13T06:14:21.768Z,99149.53
2022-12-13T06:15:21.625Z,99160.63
2022-12-13T06:16:05.948Z,99143.88
2022-12-13T06:16:47.682Z,99162.28
2022-12-13T06:17:33.987Z,99128.34
2022-12-13T06:18:15.680Z,99157.84
2022-12-13T06:19:03.823Z,99137.44
2022-12-13T06:19:49.075Z,99098.38
2022-12-13T06:20:30.721Z,99147.19
2022-12-13T06:21:12.302Z,99145.13
2022-12-13T06:21:55.067Z,99098.06
2022-12-13T06:22:36.621Z,99171.44
2022-12-13T06:23:18.238Z,99164.41
2022-12-13T06:24:00.032Z,99144.09
2022-12-13T06:24:42.082Z,99166.47
2022-12-13T06:25:30.566Z,99141.44
2022-12-13T06:26:13.513Z,99143.19
2022-12-13T06:26:55.251Z,99165.34
2022-12-13T06:27:36.954Z,99147.63
2022-12-13T06:28:18.535Z,99140.59
2022-12-13T06:29:00.098Z,99138.31
2022-12-13T06:29:42.250Z,99172.03
2022-12-13T06:30:24.135Z,99157.94
2022-12-13T06:31:05.888Z,99182.88
2022-12-13T06:31:47.888Z,99154.34
2022-12-13T06:32:29.487Z,99134.75
2022-12-13T06:33:13.273Z,99176.88
2022-12-13T06:33:55.067Z,99101.78
2022-12-13T06:34:37.140Z,99174.72
2022-12-13T06:35:28.678Z,99179.13
2022-12-13T06:36:11.700Z,99161.41
2022-12-13T06:36:53.383Z,99176.31
2022-12-13T06:37:34.927Z,99169.94
2022-12-13T06:38:30.990Z,99175.09
2022-12-13T06:39:15.576Z,99153.66
2022-12-13T06:39:57.190Z,99165.72
2022-12-13T06:40:39.302Z,99171.53
2022-12-13T06:41:21.106Z,99163.22
2022-12-13T06:42:06.109Z,99186.59
2022-12-13T06:42:47.951Z,99158.34
2022-12-13T06:43:29.532Z,99144.50
2022-12-13T06:44:11.586Z,99191.03
2022-12-13T06:44:55.802Z,98851.69
2022-12-13T06:45:41.058Z,99171.66
2022-12-13T06:46:22.790Z,99170.81
2022-12-13T06:47:11.492Z,99167.00
2022-12-13T06:47:53.969Z,99127.56
2022-12-13T06:48:35.725Z,99154.44
2022-12-13T06:49:17.329Z,99198.22
2022-12-13T06:49:58.880Z,99148.09
2022-12-13T06:50:47.366Z,99187.88
2022-12-13T06:51:32.529Z,99190.38
2022-12-13T06:52:15.213Z,99180.78
2022-12-13T06:52:56.835Z,99185.84
2022-12-13T06:53:40.141Z,99187.53
2022-12-13T06:54:22.190Z,99160.31
2022-12-13T06:55:04.202Z,99172.22
2022-12-13T06:55:45.932Z,99164.66
2022-12-13T06:56:28.239Z,99129.94
2022-12-13T06:57:13.367Z,99175.13
2022-12-13T06:57:56.573Z,99173.38
2022-12-13T06:58:39.212Z,99154.16
2022-12-13T06:59:20.873Z,99131.00
2022-12-13T07:00:04.860Z,99152.06
2022-12-13T07:00:48.747Z,99147.44
2022-12-13T07:01:37.628Z,99042.75
2022-12-13T07:02:24.846Z,99189.69
2022-12-13T07:03:08.784Z,99194.03
2022-12-13T07:03:50.479Z,99146.25
2022-12-13T07:04:32.871Z,99170.19
2022-12-13T07:05:14.555Z,99185.19
2022-12-13T07:05:58.360Z,99185.19
2022-12-13T07:06:40.088Z,99181.78
2022-12-13T07:07:22.598Z,99188.59
2022-12-13T07:08:04.551Z,99166.22
2022-12-13T07:08:51.512Z,99116.06
2022-12-13T07:09:33.506Z,99152.78
2022-12-13T07:10:22.654Z,99143.16
2022-12-13T07:11:04.515Z,99153.19
2022-12-13T07:11:51.768Z,99193.66
2022-12-13T07:12:34.043Z,99189.09
2022-12-13T07:13:15.669Z,99192.34
2022-12-13T07:13:57.488Z,99188.91
2022-12-13T07:14:41.076Z,99169.22
2022-12-13T07:15:23.049Z,99182.41
2022-12-13T07:16:05.052Z,99160.56
2022-12-13T07:16:46.781Z,99110.03
2022-12-13T07:17:33.084Z,99143.31
2022-12-13T07:18:16.284Z,99163.06
2022-12-13T07:19:01.288Z,99196.19
2022-12-13T07:19:43.780Z,99166.00
2022-12-13T07:20:25.568Z,99138.56
2022-12-13T07:21:10.380Z,99187.41
2022-12-13T07:22:05.706Z,99197.03
2022-12-13T07:22:58.340Z,99166.59
2022-12-13T07:23:41.521Z,99152.31
2022-12-13T07:24:23.126Z,99150.16
2022-12-13T07:25:05.180Z,99174.56
2022-12-13T07:25:54.192Z,99133.78
2022-12-13T07:26:35.810Z,99162.13
2022-12-13T07:27:17.419Z,99167.28
2022-12-13T07:28:02.655Z,99211.28
2022-12-13T07:28:44.813Z,99115.53
2022-12-13T07:29:26.392Z,99173.44
2022-12-13T07:30:08.492Z,99151.06
2022-12-13T07:30:50.326Z,99172.38
2022-12-13T07:31:35.760Z,99192.56
2022-12-13T07:32:17.387Z,99181.00
2022-12-13T07:32:59.157Z,99174.44
2022-12-13T07:33:41.041Z,99191.13
2022-12-13T07:34:22.633Z,99224.53
2022-12-13T07:35:04.429Z,99185.66
2022-12-13T07:35:46.220Z,99134.72
2022-12-13T07:36:27.877Z,99214.84
2022-12-13T07:37:09.643Z,99179.78
2022-12-13T07:38:12.217Z,99209.47
2022-12-13T07:38:56.577Z,99111.78
2022-12-13T07:39:38.175Z,99186.09
2022-12-13T07:40:19.772Z,99207.09
2022-12-13T07:41:01.938Z,99191.25
2022-12-13T07:41:43.603Z,99214.44
2022-12-13T07:42:26.006Z,99178.31
2022-12-13T07:43:07.773Z,99194.59
2022-12-13T07:43:49.489Z,99223.63
2022-12-13T07:44:37.443Z,99214.44
2022-12-13T07:45:20.166Z,99203.72
2022-12-13T07:46:05.067Z,99209.69
2022-12-13T07:46:46.720Z,99211.38
2022-12-13T07:47:31.909Z,99179.47
2022-12-13T07:48:13.773Z,99127.94
2022-12-13T07:48:56.021Z,99223.16
2022-12-13T07:49:43.504Z,99221.41
2022-12-13T07:50:25.892Z,99223.91
2022-12-13T07:51:11.642Z,99215.06
2022-12-13T07:51:53.274Z,99197.06
2022-12-13T07:52:34.834Z,99191.50
2022-12-13T07:53:16.845Z,99222.94
2022-12-13T07:53:58.760Z,99209.06
2022-12-13T07:54:40.680Z,99179.38
2022-12-13T07:55:23.054Z,99201.72
2022-12-13T07:56:14.850Z,99208.38
2022-12-13T07:57:01.158Z,99220.72
2022-12-13T07:57:45.819Z,99217.59
2022-12-13T07:58:29.656Z,99217.13
2022-12-13T07:59:11.333Z,99224.66
2022-12-13T07:59:53.109Z,99200.53
2022-12-13T08:00:34.990Z,99210.47
2022-12-13T08:01:16.677Z,99206.44
2022-12-13T08:01:58.350Z,99195.50
2022-12-13T08:02:43.491Z,99136.97
2022-12-13T08:03:26.602Z,99228.78
2022-12-13T08:04:08.543Z,99217.00
2022-12-13T08:04:54.379Z,99140.88
2022-12-13T08:05:38.970Z,99232.13
2022-12-13T08:06:20.968Z,99227.78
2022-12-13T08:07:02.626Z,99151.13
2022-12-13T08:07:44.432Z,99219.09
2022-12-13T08:08:30.834Z,99170.91
2022-12-13T08:09:13.305Z,99126.84
2022-12-13T08:09:55.452Z,99209.16
2022-12-13T08:10:37.187Z,99191.88
2022-12-13T08:11:18.755Z,99226.75
2022-12-13T08:12:01.258Z,99154.16
2022-12-13T08:12:42.904Z,99213.31
2022-12-13T08:13:24.488Z,99213.75
2022-12-13T08:14:06.336Z,99180.13
2022-12-13T08:14:47.948Z,99221.38
2022-12-13T08:15:34.892Z,99214.75
2022-12-13T08:16:27.912Z,99200.91
2022-12-13T08:17:10.661Z,99201.28
2022-12-13T08:17:55.620Z,99205.63
2022-12-13T08:18:39.291Z,99156.84
2022-12-13T08:19:20.883Z,99176.56
2022-12-13T08:20:02.557Z,99185.38
2022-12-13T08:20:44.179Z,99172.94
2022-12-13T08:21:52.351Z,99196.41
2022-12-13T08:22:27.431Z,99186.19
2022-12-13T08:23:17.762Z,99139.22
2022-12-13T08:23:59.497Z,99127.03
2022-12-13T08:24:41.205Z,99105.22
2022-12-13T08:25:23.218Z,99177.88
2022-12-13T08:26:06.204Z,99159.75
2022-12-13T08:26:48.095Z,99193.16
2022-12-13T08:27:30.608Z,99176.19
2022-12-13T08:28:12.249Z,99187.53
2022-12-13T08:28:54.064Z,99195.47
2022-12-13T08:29:36.455Z,99160.81
2022-12-13T08:30:23.217Z,99124.81
2022-12-13T08:31:12.127Z,99135.38
2022-12-13T08:31:53.766Z,99203.16
2022-12-13T08:32:38.376Z,99177.41
2022-12-13T08:33:20.721Z,99209.44
2022-12-13T08:34:02.602Z,99215.13
2022-12-13T08:34:45.551Z,99162.44
2022-12-13T08:35:33.686Z,99229.47
2022-12-13T08:36:17.874Z,99030.31
2022-12-13T08:37:02.096Z,99188.69
2022-12-13T08:37:45.158Z,99213.25
2022-12-13T08:38:26.754Z,99226.31
2022-12-13T08:39:09.027Z,99218.16
2022-12-13T08:39:50.735Z,99196.66
2022-12-13T08:40:32.980Z,99178.38
2022-12-13T08:41:14.599Z,99220.97
2022-12-13T08:41:56.285Z,99195.00
2022-12-13T08:42:37.857Z,99212.53
2022-12-13T08:43:24.896Z,99204.44
2022-12-13T08:44:06.846Z,99203.97
2022-12-13T08:44:50.534Z,99209.66
2022-12-13T08:45:34.344Z,99207.56
2022-12-13T08:46:16.267Z,99107.69
2022-12-13T08:46:57.890Z,99147.75
2022-12-13T08:47:42.172Z,99178.91